Time;durP1;ratioP1;P1;durP2;ratioP2;P2;SDS_P1;SDS_P2;PMS_P1;PMS_P2;Temp;Humidity;BMP_temperature;BMP_pressure;BME280_temperature;BME280_humidity;BME280_pressure;Samples;Min_cycle;Max_cycle;Signal;HPM_P1;HPM_P2
2023/11/18 00:01:38;;;;;;;9.60;5.35;;;;;;;5.66;100.00;100139.22;5132957;27;20035;-45
2023/11/18 00:04:15;;;;;;;8.27;5.57;;;;;;;5.73;100.00;100129.25;5132801;27;20051;-44
2023/11/18 00:06:44;;;;;;;9.32;5.80;;;;;;;5.66;100.00;100131.28;5132116;27;20043;-43
2023/11/18 00:09:14;;;;;;;8.30;5.38;;;;;;;5.65;100.00;100137.50;5132388;27;20043;-44
2023/11/18 00:11:43;;;;;;;8.57;5.80;;;;;;;5.64;100.00;100146.38;5132872;27;20051;-44
2023/11/18 00:14:11;;;;;;;7.72;5.45;;;;;;;5.45;100.00;100151.56;5132554;27;20096;-43
2023/11/18 00:16:41;;;;;;;8.13;5.20;;;;;;;5.41;100.00;100143.81;5132783;27;20124;-45
2023/11/18 00:19:10;;;;;;;8.18;5.70;;;;;;;5.53;100.00;100143.31;5132476;27;20043;-43
2023/11/18 00:21:38;;;;;;;9.13;5.55;;;;;;;5.70;100.00;100158.50;5132368;27;20054;-43
2023/11/18 00:24:07;;;;;;;9.52;5.72;;;;;;;5.67;100.00;100151.50;5132602;27;20043;-46
2023/11/18 00:26:36;;;;;;;9.18;5.63;;;;;;;5.71;100.00;100142.53;5114087;27;20518;-44
2023/11/18 00:29:05;;;;;;;10.35;5.78;;;;;;;5.58;100.00;100151.91;5132324;27;20467;-43
2023/11/18 00:31:33;;;;;;;9.15;5.85;;;;;;;5.59;100.00;100158.91;5132129;27;20058;-43
2023/11/18 00:34:04;;;;;;;8.38;5.50;;;;;;;5.64;100.00;100154.31;5132157;27;20099;-44
2023/11/18 00:36:33;;;;;;;7.32;5.30;;;;;;;5.59;100.00;100172.13;5132283;27;20164;-45
2023/11/18 00:39:01;;;;;;;8.10;5.82;;;;;;;5.46;100.00;100160.34;5132277;27;20039;-44
2023/11/18 00:41:29;;;;;;;9.38;5.88;;;;;;;5.25;100.00;100169.16;5131991;27;20138;-43
2023/11/18 00:43:58;;;;;;;7.78;5.70;;;;;;;5.30;100.00;100160.09;5131977;27;20412;-44
2023/11/18 00:46:26;;;;;;;8.63;6.07;;;;;;;5.44;100.00;100164.84;5132061;27;20039;-44
2023/11/18 00:48:54;;;;;;;8.55;6.00;;;;;;;5.25;100.00;100172.66;5131851;28;20103;-42
2023/11/18 00:51:24;;;;;;;8.50;6.13;;;;;;;5.11;100.00;100173.19;5132215;27;20047;-43
2023/11/18 00:53:53;;;;;;;9.65;6.85;;;;;;;5.31;100.00;100179.50;5132181;27;20047;-44
2023/11/18 00:56:22;;;;;;;9.18;6.18;;;;;;;5.16;100.00;100173.88;5132293;28;20051;-43
2023/11/18 00:58:50;;;;;;;9.30;6.60;;;;;;;5.25;100.00;100174.44;5131933;27;20044;-44
2023/11/18 01:01:19;;;;;;;8.82;5.88;;;;;;;5.18;100.00;100169.38;5131827;27;20051;-43
2023/11/18 01:03:47;;;;;;;9.73;6.75;;;;;;;5.09;100.00;100180.31;5131895;27;20073;-45
2023/11/18 01:06:16;;;;;;;8.73;6.40;;;;;;;5.21;100.00;100181.63;5131895;27;20045;-43
2023/11/18 01:08:46;;;;;;;9.15;6.32;;;;;;;5.22;100.00;100175.44;5131940;28;20077;-45
2023/11/18 01:11:18;;;;;;;10.27;6.82;;;;;;;5.08;100.00;100181.22;5131862;28;20526;-44
2023/11/18 01:13:47;;;;;;;9.40;6.43;;;;;;;5.00;100.00;100187.75;5131912;27;20046;-43
2023/11/18 01:16:15;;;;;;;9.13;6.63;;;;;;;5.02;100.00;100183.25;5132039;28;20078;-43
2023/11/18 01:18:45;;;;;;;9.82;6.43;;;;;;;5.13;100.00;100197.81;5134846;27;20051;-43
2023/11/18 01:21:17;;;;;;;10.68;6.38;;;;;;;5.02;100.00;100180.59;5136186;27;20562;-44
2023/11/18 01:23:47;;;;;;;8.40;6.55;;;;;;;5.28;100.00;100191.03;5135916;27;20138;-44
2023/11/18 01:26:15;;;;;;;8.77;5.88;;;;;;;5.23;100.00;100178.94;5135766;27;20047;-44
2023/11/18 01:28:45;;;;;;;8.60;6.05;;;;;;;5.36;100.00;100188.09;5135440;27;20138;-45
2023/11/18 01:31:13;;;;;;;10.63;6.40;;;;;;;5.26;100.00;100194.66;5135055;27;20134;-44
2023/11/18 01:33:43;;;;;;;8.15;5.80;;;;;;;5.21;100.00;100178.09;5135672;27;20047;-45
2023/11/18 01:36:12;;;;;;;9.30;6.50;;;;;;;5.42;100.00;100185.22;5135210;27;20053;-43
2023/11/18 01:38:40;;;;;;;10.20;6.22;;;;;;;5.21;100.00;100186.03;5135498;27;20562;-43
2023/11/18 01:41:10;;;;;;;10.10;6.03;;;;;;;5.31;100.00;100188.28;5135426;27;20046;-44
2023/11/18 01:43:39;;;;;;;7.75;5.50;;;;;;;5.08;100.00;100189.16;5135585;27;20051;-45
2023/11/18 01:46:12;;;;;;;9.45;5.90;;;;;;;5.16;100.00;100189.75;5135637;27;20494;-44
2023/11/18 01:48:42;;;;;;;;;;;;;;;5.01;100.00;100192.09;5135814;27;20464;-43
2023/11/18 01:51:11;;;;;;;8.68;5.93;;;;;;;5.20;100.00;100200.19;5135249;27;19925;-43
2023/11/18 01:53:43;;;;;;;9.07;5.65;;;;;;;5.29;100.00;100194.53;5135062;27;20082;-46
2023/11/18 01:56:14;;;;;;;9.10;5.82;;;;;;;5.10;100.00;100187.31;5135436;27;20079;-44
2023/11/18 01:58:43;;;;;;;9.00;5.88;;;;;;;5.13;100.00;100202.22;5135419;27;20093;-42
2023/11/18 02:01:11;;;;;;;9.13;6.00;;;;;;;5.03;100.00;100196.44;5122001;27;20067;-43
2023/11/18 02:03:40;;;;;;;8.68;5.53;;;;;;;5.08;100.00;100193.59;5114546;28;20585;-44
2023/11/18 02:06:10;;;;;;;8.30;5.80;;;;;;;4.97;100.00;100201.09;5114215;28;20054;-43
2023/11/18 02:08:41;;;;;;;9.23;5.45;;;;;;;5.04;100.00;100187.56;5114308;28;20528;-44
2023/11/18 02:11:21;;;;;;;8.15;5.70;;;;;;;5.05;100.00;100194.59;5114578;28;20044;-42
2023/11/18 02:13:54;;;;;;;8.05;5.50;;;;;;;5.11;100.00;100199.63;5114497;28;20048;-44
2023/11/18 02:16:24;;;;;;;8.20;5.75;;;;;;;5.06;100.00;100198.94;5114175;28;20178;-42
2023/11/18 02:18:53;;;;;;;8.00;5.13;;;;;;;5.11;100.00;100196.97;5114201;28;20122;-44
2023/11/18 02:21:23;;;;;;;9.73;6.10;;;;;;;5.21;100.00;100186.03;5114279;28;20481;-43
2023/11/18 02:23:52;;;;;;;7.75;5.45;;;;;;;4.94;100.00;100196.78;5114233;28;20059;-43
2023/11/18 02:26:25;;;;;;;8.20;5.30;;;;;;;5.03;100.00;100195.56;5113994;28;20044;-43
2023/11/18 02:28:54;;;;;;;7.03;5.20;;;;;;;5.08;100.00;100186.53;5133742;27;20078;-44
2023/11/18 02:31:32;;;;;;;7.80;5.18;;;;;;;5.20;100.00;100198.41;5134204;27;20051;-43
2023/11/18 02:34:07;;;;;;;8.27;4.93;;;;;;;5.15;100.00;100206.53;5134530;27;20078;-44
2023/11/18 02:36:40;;;;;;;8.18;5.72;;;;;;;5.15;100.00;100206.53;5134464;27;20130;-43
2023/11/18 02:39:17;;;;;;;6.95;5.13;;;;;;;5.08;100.00;100209.47;5134385;27;20043;-43
2023/11/18 02:41:49;;;;;;;7.35;5.03;;;;;;;5.11;100.00;100209.31;5134280;27;20043;-44
2023/11/18 02:44:20;;;;;;;7.32;5.10;;;;;;;5.16;100.00;100208.25;5134306;27;20043;-42
2023/11/18 02:46:48;;;;;;;8.10;4.88;;;;;;;5.01;100.00;100216.75;5133113;27;20062;-42
2023/11/18 02:49:17;;;;;;;8.93;5.05;;;;;;;5.03;100.00;100201.72;5113661;28;20075;-42
2023/11/18 02:51:47;;;;;;;8.20;5.15;;;;;;;4.93;100.00;100208.28;5113599;28;20051;-44
2023/11/18 02:54:18;;;;;;;8.07;5.43;;;;;;;4.82;100.00;100202.50;5113359;28;20043;-43
2023/11/18 02:56:48;;;;;;;10.25;6.40;;;;;;;4.98;100.00;100208.09;5113758;28;20054;-42
2023/11/18 02:59:16;;;;;;;9.15;5.40;;;;;;;4.89;100.00;100209.28;5113503;28;20048;-43
2023/11/18 03:01:45;;;;;;;7.03;5.05;;;;;;;4.67;100.00;100233.00;5113321;28;20051;-43
2023/11/18 03:04:14;;;;;;;8.15;5.30;;;;;;;4.77;100.00;100230.91;5113211;28;20119;-42
2023/11/18 03:06:43;;;;;;;7.93;5.50;;;;;;;4.82;100.00;100234.22;5113165;28;20131;-43
2023/11/18 03:09:11;;;;;;;9.45;5.47;;;;;;;4.85;100.00;100223.56;5113256;28;20044;-43
2023/11/18 03:11:39;;;;;;;8.45;5.15;;;;;;;4.77;100.00;100230.91;5113483;28;20073;-44
2023/11/18 03:14:12;;;;;;;7.53;5.40;;;;;;;4.74;100.00;100229.25;5113289;28;20109;-43
2023/11/18 03:16:40;;;;;;;8.52;5.35;;;;;;;5.10;100.00;100234.91;5113093;28;20611;-43
2023/11/18 03:19:13;;;;;;;7.15;5.07;;;;;;;5.02;100.00;100244.94;5112967;28;20430;-44
2023/11/18 03:21:43;;;;;;;7.30;4.32;;;;;;;5.02;100.00;100252.88;5112869;28;20544;-44
2023/11/18 03:24:11;;;;;;;6.88;4.50;;;;;;;4.91;100.00;100251.53;5113013;28;20057;-44
2023/11/18 03:26:39;;;;;;;9.75;5.28;;;;;;;5.07;100.00;100256.19;5112409;28;20126;-43
2023/11/18 03:29:10;;;;;;;7.45;4.80;;;;;;;5.25;100.00;100251.13;5113191;28;20083;-43
2023/11/18 03:31:39;;;;;;;7.63;5.13;;;;;;;5.25;100.00;100248.47;5112807;28;20119;-43
2023/11/18 03:34:07;;;;;;;8.75;5.28;;;;;;;5.07;100.00;100261.47;5112619;28;20081;-45
2023/11/18 03:36:36;;;;;;;7.18;5.03;;;;;;;4.97;100.00;100267.16;5112777;28;20142;-42
2023/11/18 03:39:04;;;;;;;7.18;4.95;;;;;;;5.01;100.00;100272.25;5112908;28;20143;-44
2023/11/18 03:41:32;;;;;;;8.70;5.60;;;;;;;5.00;100.00;100275.84;5112383;28;20052;-44
2023/11/18 03:44:01;;;;;;;7.13;5.10;;;;;;;4.97;100.00;100260.09;5112687;28;20073;-43
2023/11/18 03:46:34;;;;;;;8.05;5.78;;;;;;;4.95;100.00;100259.28;5112582;28;20050;-43
2023/11/18 03:49:03;;;;;;;7.60;5.35;;;;;;;5.06;100.00;100259.75;5112778;28;20043;-44
2023/11/18 03:51:31;;;;;;;7.75;5.35;;;;;;;5.16;100.00;100276.13;5112677;28;20111;-44
2023/11/18 03:53:59;;;;;;;7.93;5.82;;;;;;;5.12;100.00;100263.97;5112389;28;20052;-43
2023/11/18 03:56:28;;;;;;;6.93;5.20;;;;;;;5.01;100.00;100272.25;5112569;28;20134;-42
2023/11/18 03:58:57;;;;;;;8.85;5.88;;;;;;;5.04;100.00;100261.59;5112136;28;20040;-43
2023/11/18 04:01:27;;;;;;;8.10;5.60;;;;;;;4.94;100.00;100268.16;5112339;28;20457;-44
2023/11/18 04:03:57;;;;;;;8.88;5.90;;;;;;;5.06;100.00;100270.34;5112206;28;20044;-44
2023/11/18 04:06:25;;;;;;;9.15;5.90;;;;;;;5.02;100.00;100284.59;5112418;28;20051;-44
2023/11/18 04:08:53;;;;;;;9.32;5.53;;;;;;;4.94;100.00;100273.44;5112109;28;20043;-46
2023/11/18 04:11:22;;;;;;;9.38;5.90;;;;;;;5.16;100.00;100286.72;5112125;28;20426;-43
2023/11/18 04:13:50;;;;;;;8.88;5.93;;;;;;;4.95;100.00;100277.81;5112443;28;20407;-43
2023/11/18 04:16:19;;;;;;;8.95;6.03;;;;;;;4.95;100.00;100288.38;5112102;28;20056;-44
2023/11/18 04:18:48;;;;;;;8.38;5.93;;;;;;;4.93;100.00;100276.13;5112282;28;20151;-43
2023/11/18 04:21:17;;;;;;;9.00;5.38;;;;;;;4.81;100.00;100277.41;5112235;28;20043;-43
2023/11/18 04:23:46;;;;;;;8.93;6.10;;;;;;;4.92;100.00;100267.31;5112161;28;20074;-44
2023/11/18 04:26:15;;;;;;;8.57;5.63;;;;;;;4.94;100.00;100297.22;5111795;28;20172;-43
2023/11/18 04:28:43;;;;;;;9.35;5.88;;;;;;;5.07;100.00;100285.28;5111787;28;20047;-44
2023/11/18 04:31:12;;;;;;;7.75;5.78;;;;;;;5.01;100.00;100296.06;5112183;28;20043;-44
2023/11/18 04:33:40;;;;;;;8.02;5.80;;;;;;;5.09;100.00;100291.34;5111621;28;20512;-44
2023/11/18 04:36:10;;;;;;;8.32;5.30;;;;;;;5.15;100.00;100293.78;5111943;28;20044;-44
2023/11/18 04:38:43;;;;;;;7.97;5.60;;;;;;;5.24;100.00;100289.94;5111555;28;20050;-44
2023/11/18 04:41:11;;;;;;;8.93;6.10;;;;;;;5.26;100.00;100293.38;5111455;28;20071;-43
2023/11/18 04:43:41;;;;;;;8.20;6.00;;;;;;;5.26;100.00;100290.72;5111628;28;20616;-44
2023/11/18 04:46:13;;;;;;;8.00;5.80;;;;;;;5.20;100.00;100276.88;5111816;28;20047;-43
2023/11/18 04:48:41;;;;;;;8.18;5.30;;;;;;;5.33;100.00;100288.72;5111609;28;20067;-45
2023/11/18 04:51:11;;;;;;;8.35;5.50;;;;;;;5.43;100.00;100279.53;5112250;28;20044;-45
2023/11/18 04:53:41;;;;;;;7.82;5.18;;;;;;;5.38;100.00;100286.75;5116907;27;20154;-44
2023/11/18 04:56:10;;;;;;;8.43;5.03;;;;;;;5.39;100.00;100285.84;5118659;28;20089;-44
2023/11/18 04:58:39;;;;;;;7.32;5.07;;;;;;;5.57;100.00;100289.56;5118807;28;20050;-43
2023/11/18 05:01:08;;;;;;;6.80;4.95;;;;;;;5.32;100.00;100297.59;5118659;28;20044;-44
2023/11/18 05:03:37;;;;;;;9.18;5.88;;;;;;;5.37;100.00;100295.63;5118503;28;20048;-44
2023/11/18 05:06:07;;;;;;;7.10;4.97;;;;;;;5.41;100.00;100302.53;5134040;27;20047;-43
2023/11/18 05:08:36;;;;;;;9.32;4.90;;;;;;;5.51;100.00;100288.03;5139052;27;20051;-44
2023/11/18 05:11:06;;;;;;;8.82;5.53;;;;;;;5.46;100.00;100300.56;5139392;27;20043;-44
2023/11/18 05:13:35;;;;;;;9.23;4.63;;;;;;;5.46;100.00;100295.25;5141308;27;20054;-45
2023/11/18 05:16:04;;;;;;;7.53;5.05;;;;;;;5.50;100.00;100296.00;5141141;27;20330;-44
2023/11/18 05:18:35;;;;;;;7.15;4.65;;;;;;;5.43;100.00;100295.41;5140297;27;20085;-44
2023/11/18 05:21:05;;;;;;;7.13;4.53;;;;;;;5.58;100.00;100315.09;5141584;27;20050;-46
2023/11/18 05:23:35;;;;;;;6.65;4.68;;;;;;;5.56;100.00;100327.53;5140267;27;20051;-44
2023/11/18 05:26:05;;;;;;;6.60;4.43;;;;;;;5.55;100.00;100309.94;5140221;27;20043;-45
2023/11/18 05:28:35;;;;;;;8.98;4.75;;;;;;;5.55;100.00;100307.28;5139038;27;20384;-44
2023/11/18 05:31:04;;;;;;;8.13;4.55;;;;;;;5.63;100.00;100302.56;5138713;27;20080;-43
2023/11/18 05:33:35;;;;;;;7.80;4.75;;;;;;;5.56;100.00;100290.47;5138674;27;20055;-45
2023/11/18 05:36:05;;;;;;;6.57;4.75;;;;;;;5.50;100.00;100283.66;5138380;27;20480;-46
2023/11/18 05:38:35;;;;;;;7.75;4.82;;;;;;;5.48;100.00;100301.34;5138317;27;20043;-44
2023/11/18 05:41:06;;;;;;;6.00;4.30;;;;;;;5.54;100.00;100290.53;5138641;27;20513;-44
2023/11/18 05:43:40;;;;;;;6.88;4.35;;;;;;;5.51;100.00;100303.91;5138138;27;20600;-44
2023/11/18 05:46:20;;;;;;;6.45;3.95;;;;;;;5.55;100.00;100305.50;5138729;27;20134;-43
2023/11/18 05:48:50;;;;;;;6.18;4.20;;;;;;;5.60;100.00;100300.91;5138474;27;20047;-44
2023/11/18 05:51:21;;;;;;;5.75;4.00;;;;;;;5.58;100.00;100299.22;5138539;27;20073;-43
2023/11/18 05:53:51;;;;;;;5.85;4.05;;;;;;;5.59;100.00;100301.78;5138095;27;20483;-44
2023/11/18 05:56:22;;;;;;;6.40;4.32;;;;;;;5.57;100.00;100302.78;5138523;27;20129;-43
2023/11/18 05:58:53;;;;;;;6.78;4.35;;;;;;;5.59;100.00;100320.31;5138708;27;20134;-44
2023/11/18 06:01:23;;;;;;;6.38;4.32;;;;;;;5.67;100.00;100312.94;5138229;27;20051;-43
2023/11/18 06:03:52;;;;;;;6.30;4.28;;;;;;;5.45;100.00;100312.06;5137414;27;20047;-44
2023/11/18 06:06:21;;;;;;;6.30;4.40;;;;;;;5.50;100.00;100317.16;5135271;27;20100;-45
2023/11/18 06:08:53;;;;;;;6.75;4.40;;;;;;;5.67;100.00;100326.19;5134970;27;20460;-44
2023/11/18 06:11:23;;;;;;;8.50;4.20;;;;;;;5.54;100.00;100322.28;5135121;27;20076;-43
2023/11/18 06:13:53;;;;;;;7.53;4.13;;;;;;;5.50;100.00;100326.00;5134953;27;20057;-44
2023/11/18 06:16:24;;;;;;;7.10;4.35;;;;;;;5.51;100.00;100335.66;5134996;27;20484;-42
2023/11/18 06:18:54;;;;;;;6.60;4.63;;;;;;;5.56;100.00;100338.97;5134839;27;20570;-43
2023/11/18 06:21:28;;;;;;;6.68;4.07;;;;;;;5.61;100.00;100326.44;5134659;27;20507;-43
2023/11/18 06:23:59;;;;;;;6.10;4.18;;;;;;;5.41;100.00;100339.56;5134673;27;20047;-44
2023/11/18 06:26:28;;;;;;;7.13;4.50;;;;;;;5.50;100.00;100328.63;5134744;27;20051;-44
2023/11/18 06:28:59;;;;;;;6.45;4.32;;;;;;;5.67;100.00;100341.19;5134613;27;20058;-44
2023/11/18 06:31:29;;;;;;;7.28;4.60;;;;;;;5.74;100.00;100348.84;5134393;27;20462;-42
2023/11/18 06:33:57;;;;;;;8.50;4.57;;;;;;;5.55;100.00;100346.97;5134541;27;20047;-42
2023/11/18 06:36:28;;;;;;;7.03;4.70;;;;;;;5.80;100.00;100353.06;5134705;27;20047;-43
2023/11/18 06:38:58;;;;;;;7.80;4.45;;;;;;;5.92;100.00;100362.34;5134633;27;20070;-42
2023/11/18 06:41:33;;;;;;;7.55;4.38;;;;;;;5.82;100.00;100345.06;5134450;27;20469;-44
2023/11/18 06:44:09;;;;;;;10.85;7.25;;;;;;;5.84;100.00;100351.13;5134329;27;20077;-44
2023/11/18 06:46:39;;;;;;;11.40;6.90;;;;;;;5.75;100.00;100358.50;5134844;27;20131;-43
2023/11/18 06:49:10;;;;;;;10.68;6.22;;;;;;;5.98;100.00;100377.97;5134715;27;20088;-43
2023/11/18 06:51:39;;;;;;;7.38;4.20;;;;;;;5.89;100.00;100367.72;5134399;27;20040;-44
2023/11/18 06:54:09;;;;;;;9.35;4.43;;;;;;;5.84;100.00;100375.81;5134155;27;20082;-43
2023/11/18 06:56:42;;;;;;;6.45;4.53;;;;;;;5.90;100.00;100386.22;5134099;27;20043;-42
2023/11/18 06:59:13;;;;;;;7.35;4.45;;;;;;;5.92;100.00;100388.81;5133974;27;20376;-43
2023/11/18 07:01:44;;;;;;;6.05;4.00;;;;;;;6.09;100.00;100378.41;5134146;27;20079;-42
2023/11/18 07:04:15;;;;;;;5.07;3.60;;;;;;;6.03;100.00;100400.69;5134193;27;20414;-46
2023/11/18 07:06:44;;;;;;;6.53;3.83;;;;;;;5.92;100.00;100402.03;5133809;27;20051;-46
2023/11/18 07:09:16;;;;;;;6.63;3.80;;;;;;;5.76;100.00;100388.50;5133574;27;20492;-44
2023/11/18 07:11:46;;;;;;;6.47;3.97;;;;;;;5.92;100.00;100407.34;5134267;27;20055;-43
2023/11/18 07:14:17;;;;;;;8.55;3.78;;;;;;;5.82;100.00;100403.28;5134180;27;20051;-43
2023/11/18 07:16:46;;;;;;;5.88;3.50;;;;;;;5.93;100.00;100395.81;5133561;27;20407;-44
2023/11/18 07:19:19;;;;;;;5.82;3.47;;;;;;;6.12;100.00;100401.25;5133922;27;20131;-44
2023/11/18 07:21:50;;;;;;;5.05;3.47;;;;;;;6.10;100.00;100382.78;5133858;27;20043;-44
2023/11/18 07:24:19;;;;;;;5.68;3.50;;;;;;;6.19;100.00;100392.16;5133855;27;20062;-44
2023/11/18 07:26:48;;;;;;;7.70;3.50;;;;;;;5.99;100.00;100385.00;5133704;27;20071;-45
2023/11/18 07:29:18;;;;;;;5.72;3.35;;;;;;;6.11;100.00;100389.81;5133868;27;20054;-44
2023/11/18 07:31:46;;;;;;;5.47;3.67;;;;;;;6.04;100.00;100383.03;5133604;27;20050;-43
2023/11/18 07:34:15;;;;;;;6.10;3.63;;;;;;;6.17;100.00;100389.53;5133320;27;20051;-44
2023/11/18 07:36:45;;;;;;;5.88;3.30;;;;;;;5.98;100.00;100362.97;5133604;27;20046;-44
2023/11/18 07:39:19;;;;;;;4.90;3.20;;;;;;;6.05;100.00;100394.47;5133616;27;20134;-43
2023/11/18 07:41:48;;;;;;;5.43;3.50;;;;;;;6.13;100.00;100372.06;5133566;27;20415;-43
2023/11/18 07:44:17;;;;;;;5.32;3.45;;;;;;;6.17;100.00;100383.38;5133335;27;20047;-43
2023/11/18 07:46:46;;;;;;;5.53;3.25;;;;;;;6.31;100.00;100395.16;5133362;27;20043;-46
2023/11/18 07:49:16;;;;;;;6.85;3.38;;;;;;;6.24;100.00;100377.78;5133653;27;20039;-43
2023/11/18 07:51:44;;;;;;;5.00;3.13;;;;;;;6.35;100.00;100381.78;5133390;27;20043;-43
2023/11/18 07:54:13;;;;;;;5.55;3.20;;;;;;;6.44;100.00;100392.00;5133569;27;20131;-46
2023/11/18 07:56:42;;;;;;;5.35;3.40;;;;;;;6.51;100.00;100393.50;5133467;27;20069;-43
2023/11/18 07:59:15;;;;;;;5.53;3.17;;;;;;;6.49;100.00;100396.22;5133316;27;20651;-44
2023/11/18 08:01:46;;;;;;;5.03;3.05;;;;;;;6.75;100.00;100413.66;5133160;27;20073;-44
2023/11/18 08:04:14;;;;;;;4.63;2.67;;;;;;;6.62;100.00;100403.66;5133429;27;20051;-44
2023/11/18 08:06:43;;;;;;;5.57;2.90;;;;;;;6.89;100.00;100416.63;5133251;27;20085;-45
2023/11/18 08:09:14;;;;;;;4.97;2.97;;;;;;;6.75;100.00;100432.22;5133391;27;20125;-43
2023/11/18 08:11:42;;;;;;;6.25;3.22;;;;;;;6.96;100.00;100424.31;5132952;27;20047;-44
2023/11/18 08:14:11;;;;;;;4.40;2.70;;;;;;;6.79;100.00;100435.63;5132946;27;20055;-44
2023/11/18 08:16:39;;;;;;;4.47;2.75;;;;;;;6.94;100.00;100450.00;5133225;27;20039;-46
2023/11/18 08:19:09;;;;;;;4.30;2.67;;;;;;;6.84;100.00;100431.84;5133485;27;20043;-45
2023/11/18 08:21:38;;;;;;;4.82;2.80;;;;;;;7.04;100.00;100435.44;5132765;27;20058;-44
2023/11/18 08:24:08;;;;;;;5.93;2.67;;;;;;;6.98;100.00;100438.38;5132668;27;20046;-44
2023/11/18 08:26:37;;;;;;;4.53;2.92;;;;;;;7.04;100.00;100446.91;5132478;27;20454;-44
2023/11/18 08:29:06;;;;;;;5.60;2.75;;;;;;;7.24;100.00;100443.44;5132442;27;20131;-43
2023/11/18 08:31:34;;;;;;;4.47;2.60;;;;;;;7.21;100.00;100438.25;5132915;27;20051;-44
2023/11/18 08:34:04;;;;;;;6.32;2.55;;;;;;;7.09;100.00;100446.72;5132774;27;20071;-44
2023/11/18 08:36:34;;;;;;;4.55;2.60;;;;;;;7.27;100.00;100450.38;5132694;27;20372;-43
2023/11/18 08:39:03;;;;;;;4.82;2.80;;;;;;;7.24;100.00;100448.75;5132717;27;20050;-43
2023/11/18 08:41:31;;;;;;;4.65;2.75;;;;;;;7.02;100.00;100442.59;5132571;27;20476;-43
2023/11/18 08:43:59;;;;;;;3.50;2.50;;;;;;;6.94;100.00;100448.22;5132682;27;20046;-44
2023/11/18 08:46:48;;;;;;;3.60;2.50;;;;;;;7.20;100.00;100444.47;5132510;27;20054;-43
2023/11/18 08:49:21;;;;;;;8.43;3.00;;;;;;;7.05;100.00;100469.03;5132358;27;20074;-45
2023/11/18 08:51:55;;;;;;;7.63;2.83;;;;;;;7.10;100.00;100465.22;5132428;28;20590;-42
2023/11/18 08:54:25;;;;;;;5.90;2.60;;;;;;;7.31;100.00;100452.81;5132500;28;20058;-44
2023/11/18 08:56:54;;;;;;;5.00;2.60;;;;;;;7.49;100.00;100450.31;5132535;28;20043;-45
2023/11/18 08:59:24;;;;;;;4.38;2.63;;;;;;;7.45;100.00;100454.91;5132257;28;20480;-44
2023/11/18 09:01:55;;;;;;;4.43;2.35;;;;;;;7.60;100.00;100448.03;5132425;28;20082;-43
2023/11/18 09:04:24;;;;;;;5.13;2.53;;;;;;;7.68;100.00;100456.50;5132257;28;20050;-44
2023/11/18 09:07:00;;;;;;;4.68;2.28;;;;;;;7.54;100.00;100462.44;5132231;28;20122;-44
2023/11/18 09:09:28;;;;;;;3.85;2.28;;;;;;;7.44;100.00;100474.41;5132237;28;20078;-44
2023/11/18 09:11:58;;;;;;;5.45;2.35;;;;;;;7.55;100.00;100479.25;5132394;28;20050;-45
2023/11/18 09:14:27;;;;;;;4.32;2.45;;;;;;;7.59;100.00;100472.84;5132137;28;20058;-45
2023/11/18 09:16:58;;;;;;;4.32;2.00;;;;;;;7.71;100.00;100486.44;5132320;28;20096;-44
2023/11/18 09:19:27;;;;;;;5.60;2.30;;;;;;;8.01;100.00;100480.69;5132326;28;20039;-43
2023/11/18 09:21:56;;;;;;;3.50;2.13;;;;;;;8.35;100.00;100482.66;5132301;28;20047;-45
2023/11/18 09:24:25;;;;;;;3.78;2.03;;;;;;;8.36;100.00;100487.03;5131998;28;20118;-45
2023/11/18 09:26:54;;;;;;;4.90;2.80;;;;;;;8.20;100.00;100499.28;5131670;28;20508;-46
2023/11/18 09:29:24;;;;;;;4.88;2.30;;;;;;;8.03;100.00;100490.31;5131868;28;20121;-43
2023/11/18 09:31:54;;;;;;;3.30;2.05;;;;;;;7.72;100.00;100493.50;5132239;28;20415;-44
2023/11/18 09:34:27;;;;;;;3.35;2.00;;;;;;;8.02;100.00;100477.97;5131982;28;20047;-45
2023/11/18 09:36:57;;;;;;;3.42;1.98;;;;;;;7.91;100.00;100488.22;5131977;28;20564;-44
2023/11/18 09:39:37;;;;;;;5.72;2.15;;;;;;;7.66;100.00;100493.75;5133816;27;20179;-42
2023/11/18 09:42:08;;;;;;;3.63;2.17;;;;;;;7.67;100.00;100489.31;5135308;27;20077;-45
2023/11/18 09:44:38;;;;;;;4.13;2.42;;;;;;;7.39;100.00;100479.91;5135403;27;20059;-43
2023/11/18 09:47:10;;;;;;;3.63;2.08;;;;;;;7.64;100.00;100477.03;5135650;27;20411;-43
2023/11/18 09:49:45;;;;;;;5.00;2.50;;;;;;;7.55;100.00;100476.59;5135573;27;20050;-43
2023/11/18 09:52:18;;;;;;;3.85;2.13;;;;;;;7.43;100.00;100484.16;5135456;27;20452;-44
2023/11/18 09:54:57;;;;;;;3.60;2.38;;;;;;;7.40;100.00;100486.94;5135504;27;20468;-46
2023/11/18 09:57:33;;;;;;;4.03;2.30;;;;;;;7.67;100.00;100452.13;5134988;27;20138;-43
2023/11/18 10:00:19;;;;;;;4.97;2.50;;;;;;;7.71;100.00;100453.72;5135305;27;20047;-44
2023/11/18 10:02:50;;;;;;;5.88;2.22;;;;;;;7.60;100.00;100466.59;5135097;27;20047;-44
2023/11/18 10:05:21;;;;;;;3.88;2.40;;;;;;;7.67;100.00;100457.44;5135403;27;20104;-46
2023/11/18 10:07:51;;;;;;;5.85;2.30;;;;;;;8.88;100.00;100455.28;5135405;27;20047;-44
2023/11/18 10:10:20;;;;;;;4.60;2.38;;;;;;;7.97;100.00;100456.03;5135120;27;20398;-47
2023/11/18 10:12:52;;;;;;;4.43;2.38;;;;;;;7.96;100.00;100438.38;5135089;27;20035;-44
2023/11/18 10:15:23;;;;;;;4.03;2.20;;;;;;;7.85;100.00;100421.22;5134636;27;20043;-43
2023/11/18 10:17:59;;;;;;;4.85;2.40;;;;;;;7.88;100.00;100445.84;5134985;27;20051;-47
2023/11/18 10:20:45;;;;;;;5.00;2.45;;;;;;;7.80;100.00;100469.22;5134992;27;20468;-43
2023/11/18 10:23:20;;;;;;;4.43;2.20;;;;;;;7.94;100.00;100445.56;5134911;27;20054;-44
2023/11/18 10:25:52;;;;;;;2.95;1.80;;;;;;;8.14;100.00;100455.28;5134775;27;20120;-43
2023/11/18 10:28:27;;;;;;;3.22;1.80;;;;;;;8.07;100.00;100450.31;5134556;27;20051;-42
2023/11/18 10:30:58;;;;;;;3.70;2.03;;;;;;;8.05;100.00;100461.00;5134723;27;20458;-42
2023/11/18 10:33:30;;;;;;;4.60;2.10;;;;;;;8.08;100.00;100465.31;5134534;27;20401;-41
2023/11/18 10:36:03;;;;;;;4.10;2.13;;;;;;;8.42;100.00;100478.78;5134443;27;20448;-41
2023/11/18 10:38:36;;;;;;;5.37;1.77;;;;;;;8.52;100.00;100464.13;5134575;27;20154;-42
2023/11/18 10:41:05;;;;;;;;;;;;;;;8.48;100.00;100459.00;5134671;27;20050;-42
2023/11/18 10:43:35;;;;;;;3.10;1.67;;;;;;;8.36;100.00;100462.25;5134407;27;20384;-42
2023/11/18 10:46:11;;;;;;;3.67;1.52;;;;;;;8.44;100.00;100466.28;5134345;27;20054;-42
2023/11/18 10:48:44;;;;;;;3.75;1.90;;;;;;;8.58;100.00;100474.44;5134236;27;20574;-40
2023/11/18 10:51:15;;;;;;;3.33;1.63;;;;;;;8.37;100.00;100459.53;5133620;27;20051;-42
2023/11/18 10:53:58;;;;;;;5.28;1.60;;;;;;;8.11;100.00;100459.88;5134448;27;20103;-45
2023/11/18 10:56:28;;;;;;;4.63;2.08;;;;;;;8.32;100.00;100472.16;5134207;27;20047;-42
2023/11/18 10:58:58;;;;;;;2.78;1.52;;;;;;;8.41;100.00;100471.75;5133954;27;20063;-45
2023/11/18 11:01:31;;;;;;;3.15;1.40;;;;;;;8.45;100.00;100462.69;5133906;27;20051;-43
2023/11/18 11:04:04;;;;;;;;;;;;;;;8.55;100.00;100471.94;5134444;27;20046;-43
2023/11/18 11:06:34;;;;;;;2.17;1.48;;;;;;;8.59;100.00;100464.69;5133941;27;19919;-43
2023/11/18 11:09:09;;;;;;;5.05;1.60;;;;;;;8.60;100.00;100482.38;5127041;27;20036;-42
2023/11/18 11:11:46;;;;;;;2.95;1.50;;;;;;;8.53;100.00;100492.41;5115608;27;20450;-42
2023/11/18 11:14:18;;;;;;;2.22;1.33;;;;;;;8.41;100.00;100493.00;5112563;28;20490;-42
2023/11/18 11:16:53;;;;;;;1.85;1.35;;;;;;;8.35;100.00;100503.91;5115501;27;20404;-43
2023/11/18 11:19:27;;;;;;;2.20;1.50;;;;;;;8.64;100.00;100513.19;5113119;28;20043;-42
2023/11/18 11:22:05;;;;;;;5.78;2.45;;;;;;;8.70;100.00;100498.72;5113249;28;20476;-42
2023/11/18 11:24:52;;;;;;;2.72;1.70;;;;;;;8.97;100.00;100510.66;5113045;28;20075;-42
2023/11/18 11:27:35;;;;;;;2.10;1.30;;;;;;;8.60;100.00;100517.78;5113146;28;20057;-44
2023/11/18 11:30:15;;;;;;;4.05;1.50;;;;;;;8.74;100.00;100514.44;5113175;28;20468;-42
2023/11/18 11:32:51;;;;;;;3.03;1.58;;;;;;;8.84;100.00;100507.75;5111471;28;20040;-43
2023/11/18 11:35:24;;;;;;;2.80;1.30;;;;;;;8.53;100.00;100524.31;5103881;28;20048;-42
2023/11/18 11:38:02;;;;;;;2.53;1.42;;;;;;;8.48;100.00;100514.81;5092533;28;20073;-41
2023/11/18 11:40:34;;;;;;;1.90;1.30;;;;;;;8.48;100.00;100515.69;5092192;28;20048;-41
2023/11/18 11:43:05;;;;;;;3.67;1.80;;;;;;;8.56;100.00;100513.53;5092060;28;20067;-42